Time;durP1;ratioP1;P1;durP2;ratioP2;P2;SDS_P1;SDS_P2;PMS_P1;PMS_P2;Temp;Humidity;BMP_temperature;BMP_pressure;BME280_temperature;BME280_humidity;BME280_pressure;Samples;Min_cycle;Max_cycle;Signal;HPM_P1;HPM_P2
2022/04/26 03:36:41;;;;;;;12.20;8.00;;;10.90;99.90;;;;;;5012694;28;20091;-69
2022/04/26 03:39:07;;;;;;;9.27;7.82;;;11.00;99.90;;;;;;5012288;28;20424;-70
2022/04/26 03:41:33;;;;;;;12.98;7.43;;;11.00;99.90;;;;;;5006668;28;20368;-70
2022/04/26 03:44:00;;;;;;;8.90;7.57;;;11.00;99.90;;;;;;4992708;28;20034;-70
2022/04/26 03:46:26;;;;;;;11.10;7.55;;;10.90;99.90;;;;;;4993106;28;20054;-70
2022/04/26 03:48:51;;;;;;;13.13;8.50;;;10.90;99.90;;;;;;4992462;28;20475;-70
2022/04/26 03:51:17;;;;;;;10.27;7.80;;;10.90;99.90;;;;;;4992907;28;20092;-70
2022/04/26 03:53:43;;;;;;;11.43;8.27;;;10.90;99.90;;;;;;4986909;28;20026;-69
2022/04/26 03:56:08;;;;;;;10.00;8.38;;;11.00;99.90;;;;;;4993042;28;20034;-70
2022/04/26 03:58:34;;;;;;;9.65;7.22;;;11.00;99.90;;;;;;4992679;28;20085;-70
2022/04/26 04:01:00;;;;;;;8.20;7.28;;;11.00;99.90;;;;;;4992001;28;20023;-70
2022/04/26 04:03:26;;;;;;;9.80;8.25;;;11.00;99.90;;;;;;4992315;28;20065;-70
2022/04/26 04:05:52;;;;;;;11.05;7.63;;;11.00;99.90;;;;;;5007663;28;20030;-70
2022/04/26 04:08:19;;;;;;;9.18;7.40;;;10.90;99.90;;;;;;5011428;28;20034;-73
2022/04/26 04:10:44;;;;;;;8.95;7.40;;;10.90;99.90;;;;;;5011879;28;20049;-71
2022/04/26 04:13:10;;;;;;;10.68;7.75;;;10.90;99.90;;;;;;5011426;28;20034;-71
2022/04/26 04:15:37;;;;;;;10.13;7.65;;;10.90;99.90;;;;;;4993855;28;20053;-71
2022/04/26 04:18:03;;;;;;;12.48;8.00;;;10.90;99.90;;;;;;5011908;28;20026;-71
2022/04/26 04:20:29;;;;;;;10.23;7.30;;;10.90;99.90;;;;;;5012109;28;20030;-71
2022/04/26 04:22:56;;;;;;;10.68;7.43;;;10.90;99.90;;;;;;5011932;28;20026;-71
2022/04/26 04:25:22;;;;;;;11.90;6.93;;;10.90;99.90;;;;;;5007880;28;20065;-70
2022/04/26 04:27:48;;;;;;;9.65;8.02;;;10.90;99.90;;;;;;5001992;28;20053;-71
2022/04/26 04:30:13;;;;;;;11.55;7.70;;;10.90;99.90;;;;;;5011670;28;20570;-71
2022/04/26 04:32:39;;;;;;;13.82;8.38;;;10.90;99.90;;;;;;5011362;28;20095;-71
2022/04/26 04:35:06;;;;;;;10.13;7.85;;;10.90;99.90;;;;;;5009941;28;20060;-71
2022/04/26 04:37:31;;;;;;;11.13;8.48;;;10.90;99.90;;;;;;5011717;28;20196;-71
2022/04/26 04:39:57;;;;;;;11.02;8.32;;;10.90;99.90;;;;;;5011322;28;20535;-71
2022/04/26 04:42:23;;;;;;;11.50;8.60;;;10.80;99.90;;;;;;5004443;28;20026;-71
2022/04/26 04:44:48;;;;;;;11.45;8.57;;;10.80;99.90;;;;;;5010927;28;20470;-71
2022/04/26 04:47:14;;;;;;;12.73;8.00;;;10.80;99.90;;;;;;5011343;28;20466;-71
2022/04/26 04:49:40;;;;;;;13.52;8.65;;;10.80;99.90;;;;;;5010780;28;20065;-70
2022/04/26 04:52:06;;;;;;;10.05;8.13;;;10.80;99.90;;;;;;5011336;28;20080;-71
2022/04/26 04:54:31;;;;;;;10.82;8.65;;;10.80;99.90;;;;;;5011234;28;20029;-71
2022/04/26 04:56:58;;;;;;;12.02;9.60;;;10.80;99.90;;;;;;5009421;28;20047;-71
2022/04/26 04:59:23;;;;;;;11.60;8.32;;;10.90;99.90;;;;;;5011075;28;20030;-71
2022/04/26 05:01:49;;;;;;;13.77;8.50;;;10.90;99.90;;;;;;5009159;28;20022;-71
2022/04/26 05:04:14;;;;;;;11.13;9.07;;;10.80;99.90;;;;;;5010605;28;20040;-71
2022/04/26 05:06:40;;;;;;;10.05;7.82;;;10.70;99.90;;;;;;5009809;28;20557;-71
2022/04/26 05:09:06;;;;;;;17.23;9.45;;;10.70;99.90;;;;;;5010571;28;20474;-71
2022/04/26 05:11:31;;;;;;;12.32;8.93;;;10.80;99.90;;;;;;5010428;28;20088;-71
2022/04/26 05:13:57;;;;;;;13.85;8.52;;;10.80;99.90;;;;;;5010818;28;20057;-71
2022/04/26 05:16:23;;;;;;;12.27;9.02;;;10.70;99.90;;;;;;5010982;28;20030;-71
2022/04/26 05:18:48;;;;;;;13.60;8.27;;;10.70;99.90;;;;;;5010697;28;20022;-71
2022/04/26 05:21:14;;;;;;;11.40;8.48;;;10.70;99.90;;;;;;5011206;28;20091;-70
2022/04/26 05:26:25;;;;;;;13.90;8.15;;;10.70;99.90;;;;;;5010940;28;20508;-70
2022/04/26 05:28:51;;;;;;;11.50;8.65;;;10.70;99.90;;;;;;5010739;28;20022;-69
2022/04/26 05:31:17;;;;;;;14.63;9.18;;;10.80;99.90;;;;;;5010761;28;20042;-70
2022/04/26 05:33:43;;;;;;;14.82;9.18;;;10.80;99.90;;;;;;5010732;28;20396;-69
2022/04/26 05:36:09;;;;;;;15.48;9.05;;;10.80;99.90;;;;;;5010525;28;20033;-71
2022/04/26 05:38:35;;;;;;;15.55;8.48;;;10.70;99.90;;;;;;5010910;28;20014;-70
2022/04/26 05:41:01;;;;;;;19.30;9.95;;;10.70;99.90;;;;;;5008414;28;20038;-70
2022/04/26 05:43:27;;;;;;;12.77;8.80;;;10.80;99.90;;;;;;4993641;28;20050;-70
2022/04/26 05:45:53;;;;;;;17.42;9.38;;;10.70;99.90;;;;;;4990716;28;20471;-70
2022/04/26 05:48:18;;;;;;;12.48;9.00;;;10.80;99.90;;;;;;4999312;28;20014;-71
2022/04/26 05:50:45;;;;;;;13.02;9.45;;;10.80;99.90;;;;;;5009934;28;20030;-69
2022/04/26 05:53:11;;;;;;;16.95;9.45;;;10.90;99.90;;;;;;5010550;28;20091;-71
2022/04/26 05:55:38;;;;;;;14.85;9.60;;;10.80;99.90;;;;;;5010342;28;20470;-71
2022/04/26 05:58:04;;;;;;;18.48;9.18;;;10.90;99.90;;;;;;5009824;28;20025;-70
2022/04/26 06:00:30;;;;;;;12.82;9.05;;;10.90;99.90;;;;;;5009912;28;20125;-70
2022/04/26 06:02:56;;;;;;;15.85;9.98;;;10.90;99.90;;;;;;5009820;28;20101;-71
2022/04/26 06:05:22;;;;;;;14.98;8.73;;;10.90;99.90;;;;;;5008312;28;20045;-70
2022/04/26 06:07:48;;;;;;;17.98;9.63;;;11.00;99.90;;;;;;4999921;28;20034;-70
2022/04/26 06:10:14;;;;;;;15.07;9.70;;;11.00;99.90;;;;;;4998596;28;20122;-70
2022/04/26 06:12:41;;;;;;;14.10;9.35;;;10.90;99.90;;;;;;5001457;28;20116;-71
2022/04/26 06:15:08;;;;;;;19.80;10.15;;;10.90;99.90;;;;;;5010275;28;20078;-71
2022/04/26 06:17:34;;;;;;;13.75;9.85;;;10.80;99.90;;;;;;5010188;28;20386;-71
2022/04/26 06:19:59;;;;;;;13.65;8.88;;;10.90;99.90;;;;;;5009082;28;20031;-71
2022/04/26 06:22:25;;;;;;;14.25;10.57;;;10.80;99.90;;;;;;5009283;28;20033;-70
2022/04/26 06:24:52;;;;;;;15.93;9.80;;;10.70;99.90;;;;;;5009484;28;20022;-70
2022/04/26 06:27:18;;;;;;;21.98;10.10;;;10.80;99.90;;;;;;5009500;28;20026;-71
2022/04/26 06:29:44;;;;;;;17.38;10.02;;;10.80;99.90;;;;;;5008638;28;20026;-71
2022/04/26 06:32:10;;;;;;;18.00;9.50;;;10.90;99.90;;;;;;5009476;28;20501;-70
2022/04/26 06:34:36;;;;;;;15.20;12.00;;;10.90;99.90;;;;;;5062613;28;20081;-70
2022/04/26 06:37:01;;;;;;;13.55;9.70;;;11.00;99.90;;;;;;5016435;28;20034;-70
2022/04/26 06:39:28;;;;;;;14.32;9.85;;;11.00;99.90;;;;;;5006702;28;20097;-71
2022/04/26 06:41:53;;;;;;;11.75;9.55;;;11.10;99.90;;;;;;5034571;28;20103;-71
2022/04/26 06:44:19;;;;;;;12.50;8.80;;;11.10;99.90;;;;;;4989161;28;20537;-71
2022/04/26 06:46:45;;;;;;;14.18;9.70;;;11.10;99.90;;;;;;4990227;28;20018;-71
2022/04/26 06:49:10;;;;;;;13.38;9.20;;;11.00;99.90;;;;;;5004461;28;20038;-71
2022/04/26 06:51:40;;;;;;;15.18;9.40;;;11.00;99.90;;;;;;5009769;28;20038;-71
2022/04/26 06:54:07;;;;;;;13.57;9.88;;;11.00;99.90;;;;;;5009834;28;20363;-71
2022/04/26 06:56:33;;;;;;;14.85;9.75;;;11.00;99.90;;;;;;5003560;28;20079;-71
2022/04/26 06:58:59;;;;;;;17.25;11.00;;;11.00;99.90;;;;;;5009714;28;20026;-72
2022/04/26 07:01:25;;;;;;;17.60;10.85;;;11.10;99.90;;;;;;5004182;28;20109;-71
2022/04/26 07:03:50;;;;;;;17.13;11.20;;;11.10;99.90;;;;;;5005096;28;20516;-70
2022/04/26 07:06:16;;;;;;;14.50;9.73;;;11.00;99.90;;;;;;5005496;28;20033;-71
2022/04/26 07:08:42;;;;;;;16.92;11.27;;;11.20;99.90;;;;;;5010223;28;20026;-71
2022/04/26 07:11:08;;;;;;;12.93;9.63;;;11.10;99.90;;;;;;5011504;28;20053;-71
2022/04/26 07:13:34;;;;;;;21.48;10.13;;;11.10;99.90;;;;;;5012836;28;20034;-71
2022/04/26 07:16:00;;;;;;;14.40;9.82;;;11.20;99.90;;;;;;4994881;28;20049;-71
2022/04/26 07:18:26;;;;;;;14.82;9.55;;;11.20;99.90;;;;;;5012092;28;20076;-72
2022/04/26 07:20:52;;;;;;;17.95;10.20;;;11.30;99.90;;;;;;5042216;28;20546;-71
2022/04/26 07:23:18;;;;;;;16.80;9.68;;;11.30;99.90;;;;;;5063784;28;20018;-71
2022/04/26 07:25:44;;;;;;;15.95;10.75;;;11.30;99.90;;;;;;5005359;28;20595;-71
2022/04/26 07:28:09;;;;;;;15.85;10.60;;;11.30;99.90;;;;;;5002549;28;20035;-72
2022/04/26 07:30:35;;;;;;;14.02;10.40;;;11.40;99.90;;;;;;5000972;28;20031;-72
2022/04/26 07:35:46;;;;;;;18.55;10.32;;;11.30;99.90;;;;;;5012151;28;20098;-72
2022/04/26 07:38:12;;;;;;;19.92;10.98;;;11.40;99.90;;;;;;5011722;28;20030;-72
2022/04/26 07:40:38;;;;;;;15.00;11.00;;;11.50;99.90;;;;;;5011782;28;20030;-72
2022/04/26 07:43:04;;;;;;;12.02;10.38;;;11.60;99.90;;;;;;4994137;28;20498;-73
2022/04/26 07:45:30;;;;;;;14.43;11.20;;;11.70;99.90;;;;;;5012067;28;20022;-73
2022/04/26 07:47:58;;;;;;;17.48;10.75;;;11.80;99.90;;;;;;5011704;28;20053;-72
2022/04/26 07:50:23;;;;;;;18.38;12.20;;;11.90;99.90;;;;;;5011983;28;20114;-72
2022/04/26 07:52:49;;;;;;;15.05;11.00;;;11.90;99.90;;;;;;5012002;28;20439;-73
2022/04/26 07:55:15;;;;;;;21.50;11.93;;;12.00;99.90;;;;;;5011590;28;20359;-73
2022/04/26 07:57:40;;;;;;;16.20;10.90;;;11.90;99.90;;;;;;5011468;28;20425;-71
2022/04/26 08:00:07;;;;;;;16.80;12.27;;;12.00;99.90;;;;;;5005712;28;20026;-71
2022/04/26 08:02:32;;;;;;;16.55;11.23;;;12.00;99.90;;;;;;5011987;28;20070;-73
2022/04/26 08:05:01;;;;;;;14.20;11.25;;;12.00;99.90;;;;;;5011681;28;20030;-73
2022/04/26 08:07:28;;;;;;;20.15;11.48;;;12.10;99.90;;;;;;5011944;28;20113;-72
2022/04/26 08:09:55;;;;;;;16.13;11.73;;;12.20;99.90;;;;;;5010849;28;20018;-72
2022/04/26 08:12:21;;;;;;;14.70;12.45;;;12.30;99.90;;;;;;5011124;28;20162;-73
2022/04/26 08:14:47;;;;;;;15.18;10.85;;;12.50;99.90;;;;;;5011654;28;20562;-72
2022/04/26 08:17:15;;;;;;;14.80;10.25;;;12.60;99.90;;;;;;5011530;28;20095;-73
2022/04/26 08:19:43;;;;;;;18.10;11.98;;;12.70;99.90;;;;;;5011028;28;20034;-73
2022/04/26 08:22:09;;;;;;;19.45;11.77;;;12.80;99.90;;;;;;5011376;28;20034;-73
2022/04/26 08:27:22;;;;;;;14.80;11.15;;;13.20;99.90;;;;;;5012320;28;20040;-73
2022/04/26 08:29:49;;;;;;;13.45;10.70;;;13.30;99.90;;;;;;5011293;28;20103;-73
2022/04/26 08:32:15;;;;;;;14.60;10.10;;;13.60;99.90;;;;;;5010846;28;20045;-73
2022/04/26 08:34:42;;;;;;;17.40;11.43;;;13.60;99.90;;;;;;5011403;28;20026;-73
2022/04/26 08:37:08;;;;;;;17.90;11.45;;;13.70;99.90;;;;;;5009963;28;20029;-74
2022/04/26 08:39:34;;;;;;;13.48;10.50;;;13.80;99.90;;;;;;4989420;28;20022;-73
2022/04/26 08:42:02;;;;;;;15.30;11.52;;;13.70;99.90;;;;;;5000593;28;20030;-73
2022/04/26 08:44:29;;;;;;;13.45;10.27;;;13.90;99.90;;;;;;4992021;28;20121;-73
2022/04/26 08:52:27;;;;;;;13.85;9.00;;;14.50;99.90;;;;;;5010667;28;20413;-73
2022/04/26 08:54:52;;;;;;;14.48;9.73;;;14.40;99.90;;;;;;4993508;28;20075;-73
2022/04/26 08:57:18;;;;;;;13.95;9.35;;;14.70;99.90;;;;;;5011101;28;20025;-74
2022/04/26 08:59:47;;;;;;;15.98;10.15;;;14.70;99.90;;;;;;5009969;28;20205;-73
2022/04/26 09:02:20;;;;;;;14.70;9.73;;;14.60;99.90;;;;;;5003430;28;20030;-73
2022/04/26 09:04:51;;;;;;;14.15;10.55;;;14.60;99.90;;;;;;5008991;28;20071;-74
2022/04/26 09:07:30;;;;;;;10.50;8.75;;;14.50;99.90;;;;;;5012900;28;20033;-73
2022/04/26 09:10:15;;;;;;;15.20;8.98;;;14.50;99.90;;;;;;5008651;28;20093;-73
2022/04/26 09:13:09;;;;;;;14.80;8.68;;;14.50;99.90;;;;;;5010086;28;20091;-73
2022/04/26 09:15:38;;;;;;;15.00;8.77;;;14.50;99.90;;;;;;5009630;28;20386;-73
2022/04/26 09:18:15;;;;;;;18.63;9.52;;;14.30;99.90;;;;;;5009820;28;20030;-73
2022/04/26 09:20:42;;;;;;;9.93;8.93;;;14.40;99.90;;;;;;5010487;28;20048;-74
2022/04/26 09:23:29;;;;;;;14.48;8.50;;;14.40;99.90;;;;;;5009985;28;20029;-73
2022/04/26 09:26:07;;;;;;;22.67;15.82;;;14.50;99.90;;;;;;5006546;28;20034;-74
2022/04/26 09:28:33;;;;;;;11.80;9.38;;;14.80;99.90;;;;;;4990605;28;20495;-73
2022/04/26 09:30:59;;;;;;;18.83;9.45;;;14.70;99.90;;;;;;4990854;28;20030;-73
2022/04/26 09:33:33;;;;;;;13.65;8.90;;;14.70;99.90;;;;;;5010005;28;20064;-74
2022/04/26 09:36:00;;;;;;;23.40;9.23;;;14.60;99.90;;;;;;5009711;28;20048;-71
2022/04/26 09:38:26;;;;;;;15.63;9.25;;;14.80;99.90;;;;;;5010661;28;20109;-71
2022/04/26 09:41:18;;;;;;;12.82;8.93;;;14.80;99.90;;;;;;5009542;28;20066;-71
2022/04/26 09:43:54;;;;;;;10.32;8.73;;;14.80;99.90;;;;;;4991007;28;20548;-72
2022/04/26 09:46:21;;;;;;;11.95;8.18;;;14.70;99.90;;;;;;4990657;28;20015;-71
2022/04/26 09:48:46;;;;;;;17.05;8.23;;;14.70;99.90;;;;;;4997728;28;20056;-71
2022/04/26 09:51:12;;;;;;;14.00;8.50;;;14.80;99.90;;;;;;5010081;28;20042;-70
2022/04/26 09:53:38;;;;;;;10.82;8.52;;;15.00;99.90;;;;;;5010773;28;20039;-72
2022/04/26 09:56:05;;;;;;;12.27;8.32;;;15.00;99.90;;;;;;5010837;28;20464;-71
2022/04/26 09:58:31;;;;;;;12.13;9.82;;;15.20;99.90;;;;;;5010508;28;20377;-71
2022/04/26 10:01:01;;;;;;;12.95;9.10;;;15.50;99.90;;;;;;5010712;28;20022;-71
2022/04/26 10:03:31;;;;;;;12.18;7.82;;;15.70;99.90;;;;;;5009674;28;20117;-70
2022/04/26 10:06:02;;;;;;;14.45;8.65;;;15.50;99.90;;;;;;5010221;28;20483;-72
2022/04/26 10:08:30;;;;;;;9.38;7.50;;;15.40;99.90;;;;;;5010331;28;20492;-71
2022/04/26 10:10:56;;;;;;;11.85;8.57;;;15.70;99.90;;;;;;5010307;28;20066;-72
2022/04/26 10:13:32;;;;;;;11.35;8.00;;;15.90;99.90;;;;;;5010328;28;20041;-72
2022/04/26 10:16:07;;;;;;;11.00;8.60;;;16.00;99.90;;;;;;5009531;28;20521;-71
2022/04/26 10:18:34;;;;;;;11.18;8.50;;;16.20;99.90;;;;;;4994250;28;20469;-71
2022/04/26 10:21:04;;;;;;;10.82;8.20;;;16.00;99.90;;;;;;5010328;28;20484;-72
2022/04/26 10:23:50;;;;;;;14.73;7.85;;;15.80;99.90;;;;;;5010390;28;20022;-72
2022/04/26 10:26:24;;;;;;;10.45;6.47;;;15.80;99.90;;;;;;5010040;28;20032;-71
2022/04/26 10:29:08;;;;;;;9.07;7.10;;;16.00;99.90;;;;;;5010418;28;20034;-72
2022/04/26 10:31:40;;;;;;;13.60;7.20;;;16.40;99.90;;;;;;5009855;28;20049;-72
2022/04/26 10:34:16;;;;;;;10.68;6.95;;;16.50;99.90;;;;;;5009892;28;20415;-73
2022/04/26 10:36:43;;;;;;;8.27;7.00;;;16.70;99.90;;;;;;5012932;28;20026;-72
2022/04/26 10:39:09;;;;;;;12.13;7.07;;;16.70;99.90;;;;;;5013700;28;20030;-72
2022/04/26 10:41:42;;;;;;;10.23;6.97;;;16.60;99.90;;;;;;5013435;28;20044;-71
2022/04/26 10:44:14;;;;;;;11.85;7.35;;;17.00;99.90;;;;;;5012495;28;20401;-71
2022/04/26 10:46:40;;;;;;;11.30;7.47;;;17.00;99.90;;;;;;5013351;28;20162;-72
2022/04/26 10:49:24;;;;;;;11.00;6.97;;;16.70;99.90;;;;;;5012360;28;20022;-71
2022/04/26 10:51:56;;;;;;;8.95;6.82;;;17.10;99.90;;;;;;4993939;28;20042;-72
2022/04/26 10:54:48;;;;;;;12.65;7.25;;;17.20;99.90;;;;;;4993943;28;20030;-72
2022/04/26 10:57:19;;;;;;;9.93;7.38;;;17.40;99.90;;;;;;4996236;28;20073;-72
2022/04/26 10:59:47;;;;;;;8.32;6.30;;;17.50;99.90;;;;;;4993578;28;20022;-72
2022/04/26 11:02:17;;;;;;;7.78;6.53;;;17.50;99.90;;;;;;5008355;28;20600;-71
2022/04/26 11:04:44;;;;;;;9.70;7.10;;;17.90;99.90;;;;;;5012879;28;20359;-72
2022/04/26 11:07:14;;;;;;;9.43;7.05;;;17.90;98.90;;;;;;5013281;28;20370;-72
2022/04/26 11:09:50;;;;;;;9.35;6.22;;;17.60;98.90;;;;;;5013045;28;20040;-72
2022/04/26 11:12:20;;;;;;;11.65;7.07;;;17.60;99.90;;;;;;5012850;28;20072;-72
2022/04/26 11:14:47;;;;;;;10.27;6.68;;;17.70;99.90;;;;;;5012821;28;20053;-71
2022/04/26 11:17:14;;;;;;;11.10;6.80;;;18.00;99.50;;;;;;5012981;28;20060;-71
2022/04/26 11:19:49;;;;;;;8.60;6.03;;;18.30;99.20;;;;;;5012517;28;20079;-72
2022/04/26 11:22:15;;;;;;;7.43;5.60;;;18.20;98.80;;;;;;5012954;28;20435;-71
2022/04/26 11:30:30;;;;;;;6.63;5.38;;;17.80;96.50;;;;;;5012951;28;20096;-71
2022/04/26 11:33:00;;;;;;;11.23;5.72;;;18.20;97.90;;;;;;5012522;28;20497;-71
2022/04/26 11:35:26;;;;;;;11.93;6.70;;;18.10;97.90;;;;;;5012689;28;20022;-71
2022/04/26 11:38:03;;;;;;;12.10;5.93;;;18.10;97.50;;;;;;5012637;28;20109;-71
2022/04/26 11:40:54;;;;;;;10.13;5.93;;;17.80;97.30;;;;;;5012729;28;20355;-72
2022/04/26 11:43:22;;;;;;;8.93;6.22;;;17.80;97.30;;;;;;4979840;28;20073;-71
2022/04/26 11:45:52;;;;;;;9.93;6.65;;;17.80;97.10;;;;;;4993033;28;20023;-72
2022/04/26 11:48:20;;;;;;;10.80;5.97;;;17.80;96.70;;;;;;5011130;28;20037;-71
2022/04/26 11:50:50;;;;;;;11.13;6.20;;;18.00;97.60;;;;;;5012460;28;20034;-73
2022/04/26 11:53:19;;;;;;;13.98;6.85;;;18.00;97.10;;;;;;5012547;28;20522;-73
2022/04/26 11:55:46;;;;;;;6.72;5.95;;;18.20;97.30;;;;;;5012321;28;20505;-72
2022/04/26 11:58:34;;;;;;;7.50;6.18;;;18.50;97.30;;;;;;5011378;28;20122;-71
2022/04/26 12:01:16;;;;;;;9.15;5.72;;;18.70;95.70;;;;;;5005070;28;20050;-73
2022/04/26 12:03:53;;;;;;;10.43;5.90;;;18.80;95.00;;;;;;4992696;28;20102;-71
2022/04/26 12:06:19;;;;;;;8.50;5.88;;;18.60;94.10;;;;;;4992690;28;20800;-72
2022/04/26 12:08:46;;;;;;;5.47;4.85;;;18.60;95.70;;;;;;4992787;28;20039;-71
2022/04/26 12:11:24;;;;;;;8.20;5.43;;;18.70;95.90;;;;;;4992547;28;20057;-72
2022/04/26 12:14:00;;;;;;;5.90;5.18;;;18.50;94.70;;;;;;5000007;28;20026;-72
2022/04/26 12:16:27;;;;;;;5.82;5.20;;;18.80;95.70;;;;;;5010820;28;20018;-71
2022/04/26 12:18:57;;;;;;;6.55;5.82;;;19.00;94.90;;;;;;4994430;28;20030;-71
2022/04/26 12:21:27;;;;;;;7.47;6.20;;;18.90;95.10;;;;;;4994341;28;20018;-73
2022/04/26 12:24:14;;;;;;;9.95;5.97;;;18.90;95.70;;;;;;5012213;28;20030;-72
2022/04/26 12:26:56;;;;;;;9.40;5.88;;;19.10;94.80;;;;;;5012041;28;20014;-72
2022/04/26 12:29:23;;;;;;;7.90;6.47;;;19.20;95.30;;;;;;5010476;28;20022;-72
2022/04/26 12:31:49;;;;;;;11.75;6.93;;;19.10;95.20;;;;;;5011020;28;20124;-72
2022/04/26 12:34:20;;;;;;;7.97;6.50;;;19.20;96.20;;;;;;5012053;28;20033;-72
2022/04/26 12:37:15;;;;;;;8.35;6.18;;;18.60;95.10;;;;;;5011267;28;20389;-72
2022/04/26 12:39:41;;;;;;;9.65;6.70;;;18.40;96.20;;;;;;5011787;28;20033;-72
2022/04/26 12:42:12;;;;;;;10.70;6.28;;;18.00;94.50;;;;;;5055991;28;20421;-72
2022/04/26 12:44:56;;;;;;;16.13;6.95;;;17.90;95.70;;;;;;5094250;28;20063;-72
2022/04/26 12:50:28;;;;;;;8.95;6.57;;;18.20;96.20;;;;;;4993964;28;20102;-72
2022/04/26 12:52:56;;;;;;;9.90;6.57;;;18.30;95.20;;;;;;4997254;28;20033;-72
2022/04/26 12:55:32;;;;;;;10.35;6.32;;;18.30;94.80;;;;;;5007939;28;20029;-72
2022/04/26 12:58:01;;;;;;;12.65;6.35;;;18.20;94.90;;;;;;5004279;28;20079;-71
2022/04/26 13:00:27;;;;;;;10.10;7.50;;;18.00;95.60;;;;;;4985736;28;20018;-73
2022/04/26 13:02:56;;;;;;;9.45;6.68;;;18.30;96.40;;;;;;4991905;28;20493;-71
2022/04/26 13:05:22;;;;;;;9.55;7.05;;;18.60;95.70;;;;;;4991862;28;20027;-72
2022/04/26 13:07:48;;;;;;;10.52;7.60;;;18.60;95.10;;;;;;4991878;28;20502;-73
2022/04/26 13:10:18;;;;;;;10.07;7.10;;;18.70;94.90;;;;;;4991670;28;20463;-73
2022/04/26 13:12:44;;;;;;;10.52;7.38;;;18.70;94.10;;;;;;4992576;28;20058;-73
2022/04/26 13:15:11;;;;;;;7.93;6.82;;;18.90;95.00;;;;;;5010695;28;20503;-71
2022/04/26 13:17:37;;;;;;;10.30;7.03;;;18.90;94.00;;;;;;5010903;28;20033;-72
2022/04/26 13:20:04;;;;;;;11.50;6.88;;;19.20;94.70;;;;;;5011350;28;20033;-71
2022/04/26 13:22:30;;;;;;;11.75;6.88;;;19.10;93.90;;;;;;5011137;28;20026;-72
2022/04/26 13:24:56;;;;;;;8.77;7.15;;;19.00;93.90;;;;;;5010925;28;20030;-72
2022/04/26 13:27:22;;;;;;;9.57;7.18;;;18.70;93.90;;;;;;4999952;28;20033;-71
2022/04/26 13:29:49;;;;;;;8.55;6.85;;;18.60;93.00;;;;;;4997032;28;20101;-72
2022/04/26 13:32:19;;;;;;;7.70;6.60;;;18.50;93.10;;;;;;5003215;28;20034;-71
2022/04/26 13:34:45;;;;;;;7.70;6.40;;;18.70;93.30;;;;;;5000574;28;20025;-74
2022/04/26 13:37:11;;;;;;;7.25;6.35;;;19.00;93.40;;;;;;5007794;28;20045;-74
2022/04/26 13:39:39;;;;;;;7.13;6.30;;;19.30;93.60;;;;;;5000838;28;20029;-74
2022/04/26 13:42:06;;;;;;;10.65;6.90;;;19.40;92.50;;;;;;5015321;28;20026;-74
2022/04/26 13:44:32;;;;;;;7.78;6.28;;;19.10;91.80;;;;;;5000809;28;20547;-74
2022/04/26 13:46:58;;;;;;;8.15;7.07;;;18.80;93.40;;;;;;5005882;28;20022;-75
2022/04/26 13:49:24;;;;;;;7.47;6.20;;;18.70;92.60;;;;;;4998622;28;20042;-73
2022/04/26 13:51:51;;;;;;;8.75;7.38;;;18.90;94.20;;;;;;5002990;28;20069;-75
2022/04/26 13:54:16;;;;;;;11.25;7.80;;;18.90;92.40;;;;;;5003358;28;20065;-74
2022/04/26 13:56:42;;;;;;;10.07;6.75;;;19.00;92.30;;;;;;5001206;28;20478;-74
2022/04/26 13:59:09;;;;;;;11.60;5.93;;;18.60;91.20;;;;;;5006075;28;20024;-75
2022/04/26 14:01:35;;;;;;;8.70;5.60;;;18.50;92.40;;;;;;5004029;28;20030;-75
2022/04/26 14:04:01;;;;;;;12.48;6.50;;;18.80;92.70;;;;;;5002493;28;20041;-75
2022/04/26 14:06:26;;;;;;;8.07;6.30;;;19.10;90.90;;;;;;4999030;28;20054;-74
2022/04/26 14:08:52;;;;;;;7.10;6.45;;;19.00;92.00;;;;;;4999785;28;20083;-75
2022/04/26 14:11:19;;;;;;;8.45;6.22;;;18.90;91.50;;;;;;5003502;28;20044;-74
2022/04/26 14:21:58;;;;;;;9.65;6.30;;;19.40;91.20;;;;;;5001453;28;20049;-75
2022/04/26 14:24:24;;;;;;;7.95;6.32;;;19.50;91.40;;;;;;5008374;28;20034;-74
2022/04/26 14:26:51;;;;;;;8.77;5.43;;;19.60;90.50;;;;;;4999716;28;20026;-74
2022/04/26 14:29:17;;;;;;;6.70;6.00;;;19.50;90.50;;;;;;4996680;28;20052;-74
2022/04/26 14:31:43;;;;;;;8.48;5.95;;;19.40;91.30;;;;;;5000247;28;20460;-74
2022/04/26 14:34:09;;;;;;;8.68;6.00;;;19.40;91.60;;;;;;5000568;28;20034;-72
2022/04/26 14:36:34;;;;;;;6.93;5.68;;;19.20;90.70;;;;;;5000486;28;20483;-74
2022/04/26 14:39:00;;;;;;;8.80;5.82;;;19.10;90.50;;;;;;4996513;28;20027;-75
2022/04/26 14:41:26;;;;;;;7.53;5.85;;;19.00;91.30;;;;;;5013435;28;20038;-75
2022/04/26 14:43:53;;;;;;;10.80;5.13;;;18.90;91.50;;;;;;5008269;28;20041;-74
2022/04/26 14:46:19;;;;;;;6.30;5.22;;;18.90;92.10;;;;;;5004545;28;20026;-75
2022/04/26 14:48:45;;;;;;;8.68;6.22;;;18.90;92.40;;;;;;4992399;28;20389;-74
2022/04/26 14:51:11;;;;;;;8.75;5.68;;;19.00;91.70;;;;;;4995129;28;20121;-75
2022/04/26 14:53:38;;;;;;;6.55;5.68;;;18.90;92.50;;;;;;4998727;28;20038;-75
2022/04/26 14:56:05;;;;;;;8.05;5.93;;;18.80;92.60;;;;;;4998936;28;20041;-75
2022/04/26 14:58:33;;;;;;;6.95;5.38;;;18.90;91.10;;;;;;4999566;28;20030;-75
2022/04/26 15:00:59;;;;;;;8.18;5.82;;;18.80;92.00;;;;;;5004972;28;20515;-74
2022/04/26 15:03:24;;;;;;;11.68;5.88;;;18.80;92.10;;;;;;5005543;28;20034;-75
2022/04/26 15:05:50;;;;;;;8.15;5.47;;;19.00;92.30;;;;;;4990338;28;20093;-74
2022/04/26 15:11:00;;;;;;;5.15;4.72;;;19.00;92.20;;;;;;5002651;28;20053;-74
2022/04/26 15:19:02;;;;;;;7.85;5.43;;;19.20;91.60;;;;;;5000940;28;20041;-74
2022/04/26 15:21:27;;;;;;;6.18;5.30;;;19.30;91.70;;;;;;4994965;28;20026;-73
2022/04/26 15:23:56;;;;;;;9.90;5.45;;;19.20;91.70;;;;;;5008779;28;20423;-73
2022/04/26 15:26:23;;;;;;;10.27;5.47;;;19.10;90.90;;;;;;5006010;28;20482;-73
2022/04/26 15:28:49;;;;;;;7.65;5.47;;;18.90;91.80;;;;;;5003329;28;20543;-73
2022/04/26 15:31:18;;;;;;;8.38;5.63;;;18.60;91.80;;;;;;5009489;28;20073;-74
2022/04/26 15:33:48;;;;;;;8.35;5.00;;;18.50;91.30;;;;;;5008204;28;20485;-74
2022/04/26 15:36:15;;;;;;;7.00;4.57;;;18.50;91.60;;;;;;5007632;28;20030;-75
2022/04/26 15:38:42;;;;;;;9.82;4.53;;;18.40;91.50;;;;;;4997000;28;20084;-75
2022/04/26 15:41:08;;;;;;;7.10;4.50;;;18.50;91.50;;;;;;5015115;28;20067;-73
2022/04/26 15:43:34;;;;;;;7.72;4.60;;;18.40;91.50;;;;;;5009814;28;20405;-69
2022/04/26 15:46:08;;;;;;;6.63;4.15;;;18.50;92.30;;;;;;5006517;28;20027;-72
2022/04/26 15:48:37;;;;;;;6.82;5.00;;;18.50;91.20;;;;;;4994014;28;20036;-72
2022/04/26 15:51:04;;;;;;;7.10;4.88;;;18.30;90.40;;;;;;5011393;28;20042;-72
2022/04/26 15:53:30;;;;;;;5.95;4.68;;;18.20;91.20;;;;;;4994485;28;20018;-72
2022/04/26 15:55:56;;;;;;;7.82;4.85;;;18.20;91.50;;;;;;5002289;28;20030;-72
2022/04/26 15:58:21;;;;;;;6.57;4.50;;;18.20;91.10;;;;;;4991561;28;20695;-72
2022/04/26 16:00:47;;;;;;;6.32;4.03;;;18.00;91.40;;;;;;4982102;28;21775;-71
2022/04/26 16:03:13;;;;;;;6.68;4.60;;;18.00;92.10;;;;;;4989731;28;20524;-71
2022/04/26 16:05:41;;;;;;;8.48;4.68;;;17.90;91.50;;;;;;5005037;28;20026;-72
2022/04/26 16:08:07;;;;;;;6.00;4.30;;;17.80;91.60;;;;;;5005646;28;20030;-70
2022/04/26 16:21:31;;;;;;;7.18;4.82;;;17.90;91.60;;;;;;5006959;28;20082;-71
2022/04/26 16:23:57;;;;;;;7.63;5.20;;;17.90;92.10;;;;;;4993984;28;20026;-71
2022/04/26 16:26:24;;;;;;;5.90;4.70;;;17.80;91.50;;;;;;5000151;28;20019;-71
2022/04/26 16:28:54;;;;;;;5.53;4.78;;;17.80;91.50;;;;;;5001019;28;20025;-71
2022/04/26 16:31:29;;;;;;;6.00;5.15;;;17.80;92.30;;;;;;4998910;28;21336;-71
2022/04/26 16:33:59;;;;;;;6.50;5.10;;;17.70;91.40;;;;;;5009566;28;20489;-71
2022/04/26 16:36:25;;;;;;;6.55;5.20;;;17.70;91.60;;;;;;5009841;28;20047;-71
2022/04/26 16:38:52;;;;;;;5.55;4.68;;;17.70;91.50;;;;;;5015027;28;20087;-71
2022/04/26 16:41:19;;;;;;;6.47;4.70;;;17.70;91.40;;;;;;5034226;28;20034;-73
2022/04/26 16:43:46;;;;;;;6.03;5.35;;;17.50;91.40;;;;;;5051426;28;20030;-72
2022/04/26 16:46:17;;;;;;;8.13;5.07;;;17.50;92.70;;;;;;5003785;28;20026;-73
2022/04/26 16:48:43;;;;;;;5.95;4.72;;;17.40;91.40;;;;;;4998076;28;20113;-73
2022/04/26 16:51:09;;;;;;;5.53;4.97;;;17.30;91.20;;;;;;5003609;28;20111;-73
2022/04/26 16:53:35;;;;;;;7.43;5.00;;;17.30;92.30;;;;;;4980969;28;20053;-72
2022/04/26 16:56:01;;;;;;;5.20;4.70;;;17.20;92.10;;;;;;5006805;28;20563;-73
2022/04/26 16:58:27;;;;;;;6.25;4.88;;;17.20;92.00;;;;;;5001691;28;20044;-72
2022/04/26 17:00:52;;;;;;;7.50;4.18;;;17.20;91.50;;;;;;5007206;28;20385;-73
2022/04/26 17:03:18;;;;;;;6.78;4.05;;;17.20;91.80;;;;;;5007999;28;20069;-73
2022/04/26 17:05:47;;;;;;;7.65;4.32;;;17.10;92.50;;;;;;5000440;28;20057;-72
2022/04/26 17:08:17;;;;;;;7.97;4.72;;;17.10;92.30;;;;;;5003905;28;20041;-72